Time;durP1;ratioP1;P1;durP2;ratioP2;P2;SDS_P1;SDS_P2;PMS_P1;PMS_P2;Temp;Humidity;BMP_temperature;BMP_pressure;BME280_temperature;BME280_humidity;BME280_pressure;Samples;Min_cycle;Max_cycle;Signal;HPM_P1;HPM_P2
2022/12/28 00:02:02;;;;;;;;;;;5.90;99.90;;;;;;5049449;28;19915;-67
2022/12/28 00:04:27;;;;;;;;;;;6.10;99.90;;;;;;5042719;28;19917;-66
2022/12/28 00:06:53;;;;;;;;;;;6.10;99.90;;;;;;5050954;28;20008;-66
2022/12/28 00:09:18;;;;;;;;;;;6.20;99.90;;;;;;5047645;28;19913;-66
2022/12/28 00:11:44;;;;;;;;;;;6.20;99.90;;;;;;5050595;28;19919;-66
2022/12/28 00:14:09;;;;;;;;;;;6.30;99.90;;;;;;5050726;28;20014;-66
2022/12/28 00:16:36;;;;;;;;;;;6.30;99.90;;;;;;5050581;28;19913;-67
2022/12/28 00:19:19;;;;;;;;;;;6.40;99.90;;;;;;5046960;28;19916;-67
2022/12/28 00:21:45;;;;;;;;;;;6.50;99.90;;;;;;5049723;28;19923;-66
2022/12/28 00:24:16;;;;;;;;;;;6.40;99.90;;;;;;5043955;28;19920;-66
2022/12/28 00:26:41;;;;;;;;;;;6.40;99.90;;;;;;5050503;28;19915;-67
2022/12/28 00:29:07;;;;;;;;;;;6.50;99.90;;;;;;5050431;28;20362;-66
2022/12/28 00:31:33;;;;;;;;;;;6.50;99.90;;;;;;5050573;28;19980;-66
2022/12/28 00:33:58;;;;;;;;;;;6.50;99.90;;;;;;5050730;28;19995;-66
2022/12/28 00:36:24;;;;;;;;;;;6.50;99.90;;;;;;5045549;28;19916;-67
2022/12/28 00:38:49;;;;;;;;;;;6.50;99.90;;;;;;5049303;28;20410;-67
2022/12/28 00:41:15;;;;;;;;;;;6.50;99.90;;;;;;5045939;28;19976;-66
2022/12/28 00:43:40;;;;;;;;;;;6.60;99.90;;;;;;5050085;28;19924;-66
2022/12/28 00:46:05;;;;;;;;;;;6.50;99.90;;;;;;5045973;28;19989;-67
2022/12/28 00:48:31;;;;;;;;;;;6.50;99.90;;;;;;5044412;28;20315;-67
2022/12/28 00:51:02;;;;;;;;;;;6.50;99.90;;;;;;5049867;28;19932;-66
2022/12/28 00:53:27;;;;;;;;;;;6.50;99.90;;;;;;5044217;28;20354;-66
2022/12/28 00:55:53;;;;;;;;;;;6.50;99.90;;;;;;5047165;28;19912;-67
2022/12/28 00:58:18;;;;;;;;;;;6.50;99.90;;;;;;5050168;28;19909;-67
2022/12/28 01:00:44;;;;;;;;;;;6.50;99.90;;;;;;5054107;28;20374;-66
2022/12/28 01:03:09;;;;;;;;;;;6.50;99.90;;;;;;5053876;28;20309;-66
2022/12/28 01:05:37;;;;;;;;;;;6.60;99.90;;;;;;5053692;28;19912;-69
2022/12/28 01:08:03;;;;;;;;;;;6.60;99.90;;;;;;5051314;28;19920;-66
2022/12/28 01:10:28;;;;;;;;;;;6.50;99.90;;;;;;5053002;28;19912;-67
2022/12/28 01:12:54;;;;;;;;;;;6.60;99.90;;;;;;5048194;28;19963;-66
2022/12/28 01:15:19;;;;;;;;;;;6.70;99.90;;;;;;5052198;28;19909;-66
2022/12/28 01:17:45;;;;;;;;;;;6.70;99.90;;;;;;5054170;28;19948;-66
2022/12/28 01:20:10;;;;;;;;;;;6.70;99.90;;;;;;5054225;28;20394;-67
2022/12/28 01:22:36;;;;;;;;;;;6.80;99.90;;;;;;5053857;28;19999;-67
2022/12/28 01:25:01;;;;;;;;;;;6.80;99.90;;;;;;5053885;28;19909;-67
2022/12/28 01:27:27;;;;;;;;;;;6.80;99.90;;;;;;5052794;28;19913;-67
2022/12/28 01:29:52;;;;;;;;;;;6.80;99.90;;;;;;5053775;28;19905;-67
2022/12/28 01:32:17;;;;;;;;;;;6.80;99.90;;;;;;5048683;28;19909;-66
2022/12/28 01:34:43;;;;;;;;;;;6.80;99.90;;;;;;5053964;28;20416;-67
2022/12/28 01:37:08;;;;;;;;;;;6.80;99.90;;;;;;5053141;28;19920;-67
2022/12/28 01:39:34;;;;;;;;;;;6.80;99.90;;;;;;5051088;28;19905;-66
2022/12/28 01:41:59;;;;;;;;;;;6.90;99.90;;;;;;5048679;28;19944;-66
2022/12/28 01:44:25;;;;;;;;;;;6.90;99.90;;;;;;5052204;28;20369;-67
2022/12/28 01:46:52;;;;;;;;;;;6.90;99.90;;;;;;5054047;28;19908;-64
2022/12/28 01:49:18;;;;;;;;;;;6.90;99.90;;;;;;5053300;28;19904;-65
2022/12/28 01:51:49;;;;;;;;;;;6.90;99.90;;;;;;5053506;28;20407;-65
2022/12/28 01:54:15;;;;;;;;;;;6.90;99.90;;;;;;5052166;28;20334;-64
2022/12/28 01:56:41;;;;;;;;;;;7.00;99.90;;;;;;5053270;28;19909;-67
2022/12/28 01:59:06;;;;;;;;;;;7.00;99.90;;;;;;5051080;28;19920;-64
2022/12/28 02:01:32;;;;;;;;;;;7.00;99.90;;;;;;5052636;28;19913;-65
2022/12/28 02:03:57;;;;;;;;;;;6.90;99.90;;;;;;5048989;28;19908;-65
2022/12/28 02:06:23;;;;;;;;;;;7.00;99.90;;;;;;5053692;28;19927;-65
2022/12/28 02:08:56;;;;;;;;;;;7.00;99.90;;;;;;5052880;28;19911;-65
2022/12/28 02:11:21;;;;;;;;;;;7.10;99.90;;;;;;5051062;28;19952;-65
2022/12/28 02:13:48;;;;;;;;;;;7.10;99.90;;;;;;5051678;28;19951;-65
2022/12/28 02:16:13;;;;;;;;;;;7.10;99.90;;;;;;5046529;28;19912;-64
2022/12/28 02:18:40;;;;;;;;;;;7.10;99.90;;;;;;5049794;28;19971;-64
2022/12/28 02:21:05;;;;;;;;;;;7.10;99.90;;;;;;5049321;28;19935;-65
2022/12/28 02:23:49;;;;;;;;;;;7.20;99.90;;;;;;5052038;28;19917;-64
2022/12/28 02:26:27;;;;;;;;;;;7.20;99.90;;;;;;5052440;28;20294;-65
2022/12/28 02:29:27;;;;;;;;;;;7.30;99.90;;;;;;5048611;28;20371;-65
2022/12/28 02:31:57;;;;;;;;;;;7.30;99.90;;;;;;4988769;28;20017;-64
2022/12/28 02:34:28;;;;;;;;;;;7.30;99.90;;;;;;5037522;28;19947;-65
2022/12/28 02:37:02;;;;;;;;;;;7.30;99.90;;;;;;5052325;28;19917;-65
2022/12/28 02:39:38;;;;;;;;;;;7.40;99.90;;;;;;5051973;28;19912;-64
2022/12/28 02:42:05;;;;;;;;;;;7.40;99.90;;;;;;5051952;28;19934;-65
2022/12/28 02:50:05;;;;;;;;;;;7.40;99.90;;;;;;5052612;28;19916;-64
2022/12/28 02:52:39;;;;;;;;;;;7.40;99.90;;;;;;5045270;28;19920;-65
2022/12/28 02:58:07;;;;;;;;;;;7.40;99.90;;;;;;5052070;28;19916;-64
2022/12/28 03:00:49;;;;;;;;;;;7.40;99.90;;;;;;5049064;28;19913;-65
2022/12/28 03:03:14;;;;;;;;;;;7.30;99.90;;;;;;5045961;28;20015;-65
2022/12/28 03:08:48;;;;;;;;;;;7.40;99.90;;;;;;5051852;28;19919;-64
2022/12/28 03:11:16;;;;;;;;;;;7.50;99.90;;;;;;5052190;28;19952;-64
2022/12/28 03:13:47;;;;;;;;;;;7.60;99.90;;;;;;5050759;28;20371;-64
2022/12/28 03:16:27;;;;;;;;;;;7.60;99.90;;;;;;5051596;28;19955;-64
2022/12/28 03:32:50;;;;;;;;;;;8.20;99.90;;;;;;5049924;28;19947;-65
2022/12/28 03:35:17;;;;;;;;;;;8.30;99.90;;;;;;5050662;28;19952;-65
2022/12/28 03:37:49;;;;;;;;;;;8.40;99.90;;;;;;5049912;28;19924;-65
2022/12/28 03:40:33;;;;;;;;;;;8.50;99.90;;;;;;5045319;28;19919;-65
2022/12/28 03:45:46;;;;;;;;;;;8.50;99.90;;;;;;5049744;28;20470;-65
2022/12/28 03:48:11;;;;;;;;;;;8.50;99.90;;;;;;5050884;28;20011;-64
2022/12/28 03:50:39;;;;;;;;;;;8.50;99.90;;;;;;5051257;28;19916;-65
2022/12/28 03:53:05;;;;;;;;;;;8.60;99.90;;;;;;5050896;28;19920;-64
2022/12/28 03:55:31;;;;;;;;;;;8.50;99.90;;;;;;5051232;28;20003;-64
2022/12/28 03:57:56;;;;;;;;;;;8.60;99.90;;;;;;5051029;28;20031;-64
2022/12/28 04:00:21;;;;;;;;;;;8.60;99.90;;;;;;5050331;28;19913;-65
2022/12/28 04:02:47;;;;;;;;;;;8.60;99.90;;;;;;5050697;28;20297;-64
2022/12/28 04:05:12;;;;;;;;;;;8.60;99.90;;;;;;5051052;28;20037;-65
2022/12/28 04:07:38;;;;;;;;;;;8.60;99.90;;;;;;5046374;28;19917;-65
2022/12/28 04:10:03;;;;;;;;;;;8.60;99.90;;;;;;5044103;28;19932;-66
2022/12/28 04:12:29;;;;;;;;;;;8.70;99.90;;;;;;5050348;28;19932;-65
2022/12/28 04:14:54;;;;;;;;;;;8.80;99.90;;;;;;5050756;28;19938;-65
2022/12/28 04:17:20;;;;;;;;;;;8.90;99.90;;;;;;5045375;28;19967;-66
2022/12/28 04:19:45;;;;;;;;;;;8.90;99.90;;;;;;5050353;28;19920;-65
2022/12/28 04:22:11;;;;;;;;;;;8.90;99.90;;;;;;5049576;28;19963;-66
2022/12/28 04:24:36;;;;;;;;;;;8.90;99.90;;;;;;5050167;28;19982;-66
2022/12/28 04:27:01;;;;;;;;;;;9.00;99.90;;;;;;5046830;28;20370;-66
2022/12/28 04:29:27;;;;;;;;;;;8.90;99.90;;;;;;5048037;28;20283;-65
2022/12/28 04:31:52;;;;;;;;;;;9.00;99.90;;;;;;5050647;28;19908;-64
2022/12/28 04:34:18;;;;;;;;;;;8.90;99.90;;;;;;5048880;28;19912;-66
2022/12/28 04:39:23;;;;;;;;;;;9.00;99.90;;;;;;5068509;28;19925;-63
2022/12/28 04:41:49;;;;;;;;;;;9.00;99.90;;;;;;5069848;28;20370;-61
2022/12/28 04:44:14;;;;;;;;;;;9.00;99.90;;;;;;5069937;28;19916;-61
2022/12/28 04:46:40;;;;;;;;;;;9.10;99.90;;;;;;5070355;28;19956;-62
2022/12/28 04:49:05;;;;;;;;;;;9.10;99.90;;;;;;5069186;28;20298;-62
2022/12/28 04:51:31;;;;;;;;;;;9.10;99.90;;;;;;5065940;28;19912;-61
2022/12/28 04:53:56;;;;;;;;;;;9.10;99.90;;;;;;5069288;28;19967;-62
2022/12/28 04:56:22;;;;;;;;;;;9.10;99.90;;;;;;5067340;28;20279;-62
2022/12/28 04:58:52;;;;;;;;;;;9.10;99.90;;;;;;5066488;28;19912;-61
2022/12/28 05:01:18;;;;;;;;;;;9.10;99.90;;;;;;5066569;28;20374;-62
2022/12/28 05:03:44;;;;;;;;;;;9.20;99.90;;;;;;5059017;28;19917;-63
2022/12/28 05:06:11;;;;;;;;;;;9.20;99.90;;;;;;5064872;28;19917;-63
2022/12/28 05:08:37;;;;;;;;;;;9.20;99.90;;;;;;5069529;28;19923;-61
2022/12/28 05:11:04;;;;;;;;;;;9.20;99.90;;;;;;5064578;28;20363;-61
2022/12/28 05:13:29;;;;;;;;;;;9.40;99.90;;;;;;5067706;28;19999;-62
2022/12/28 05:15:59;;;;;;;;;;;9.30;99.90;;;;;;5065622;28;20015;-61
2022/12/28 05:18:24;;;;;;;;;;;9.30;99.90;;;;;;5068033;28;19913;-61
2022/12/28 05:20:56;;;;;;;;;;;9.30;99.90;;;;;;5069577;28;20279;-63
2022/12/28 05:23:22;;;;;;;;;;;9.40;99.90;;;;;;5069539;28;19956;-62
2022/12/28 05:25:51;;;;;;;;;;;9.50;99.90;;;;;;5069897;28;19958;-62
2022/12/28 05:28:17;;;;;;;;;;;9.40;99.90;;;;;;5070011;28;19963;-62
2022/12/28 05:30:42;;;;;;;;;;;9.40;99.90;;;;;;5070043;28;19959;-63
2022/12/28 05:33:08;;;;;;;;;;;9.50;99.90;;;;;;5065039;28;20037;-62
2022/12/28 05:35:33;;;;;;;;;;;9.50;99.90;;;;;;5069921;28;19913;-63
2022/12/28 05:37:59;;;;;;;;;;;9.50;99.90;;;;;;5069982;28;20426;-62
2022/12/28 05:40:24;;;;;;;;;;;9.50;99.90;;;;;;5069533;28;19919;-61
2022/12/28 05:42:50;;;;;;;;;;;9.50;99.90;;;;;;5062469;28;19913;-63
2022/12/28 05:45:15;;;;;;;;;;;9.60;99.90;;;;;;5071561;28;19966;-63
2022/12/28 05:47:41;;;;;;;;;;;9.60;99.90;;;;;;5072006;28;19908;-61
2022/12/28 05:50:06;;;;;;;;;;;9.60;99.90;;;;;;5071637;28;19959;-62
2022/12/28 05:52:32;;;;;;;;;;;9.50;99.90;;;;;;5066077;28;19912;-62
2022/12/28 05:54:57;;;;;;;;;;;9.50;99.90;;;;;;5073345;28;19912;-63
2022/12/28 05:57:23;;;;;;;;;;;9.50;99.90;;;;;;5072842;28;19931;-63
2022/12/28 05:59:48;;;;;;;;;;;9.60;99.90;;;;;;5073298;28;19908;-63
2022/12/28 06:02:13;;;;;;;;;;;9.60;99.90;;;;;;5072165;28;19936;-61
2022/12/28 06:04:39;;;;;;;;;;;9.60;99.90;;;;;;5073078;28;20004;-62
2022/12/28 06:07:04;;;;;;;;;;;9.60;99.90;;;;;;5070618;28;19916;-61
2022/12/28 06:09:30;;;;;;;;;;;9.70;99.90;;;;;;5072778;28;20378;-59
2022/12/28 06:11:55;;;;;;;;;;;9.60;99.90;;;;;;5070651;28;20479;-61
2022/12/28 06:14:21;;;;;;;;;;;9.70;99.90;;;;;;5071852;28;19912;-62
2022/12/28 06:16:50;;;;;;;;;;;9.60;99.90;;;;;;5067611;28;19921;-64
2022/12/28 06:19:17;;;;;;;;;;;9.60;99.90;;;;;;5072724;28;20298;-63
2022/12/28 06:21:43;;;;;;;;;;;9.70;99.90;;;;;;5065751;28;19990;-64
2022/12/28 06:24:09;;;;;;;;;;;9.80;99.90;;;;;;5071328;28;19978;-63
2022/12/28 06:26:36;;;;;;;;;;;9.70;99.90;;;;;;5072904;28;19908;-61
2022/12/28 06:29:02;;;;;;;;;;;9.70;99.90;;;;;;5072778;28;20310;-62
2022/12/28 06:31:32;;;;;;;;;;;9.70;99.90;;;;;;5072739;28;19908;-63
2022/12/28 06:33:58;;;;;;;;;;;9.70;99.90;;;;;;5072292;28;19912;-63
2022/12/28 06:36:25;;;;;;;;;;;9.70;99.90;;;;;;5071496;28;20012;-63
2022/12/28 06:38:51;;;;;;;;;;;9.70;99.90;;;;;;5072088;28;19916;-62
2022/12/28 06:41:18;;;;;;;;;;;9.70;99.90;;;;;;5072118;28;19916;-62
2022/12/28 06:43:44;;;;;;;;;;;9.70;99.90;;;;;;5072288;28;19960;-62
2022/12/28 06:46:10;;;;;;;;;;;9.60;99.90;;;;;;5071937;28;20061;-63
2022/12/28 06:48:36;;;;;;;;;;;9.80;99.90;;;;;;5073029;28;19963;-61
2022/12/28 06:51:01;;;;;;;;;;;9.70;99.90;;;;;;5072540;28;19959;-61
2022/12/28 06:53:28;;;;;;;;;;;9.80;99.90;;;;;;5063199;28;20366;-62
2022/12/28 06:55:55;;;;;;;;;;;9.70;99.90;;;;;;5071396;28;19919;-62
2022/12/28 06:58:21;;;;;;;;;;;9.70;99.90;;;;;;5071579;28;20686;-63
2022/12/28 07:00:46;;;;;;;;;;;9.70;99.90;;;;;;5067950;28;20011;-63
2022/12/28 07:03:12;;;;;;;;;;;9.60;99.90;;;;;;5071814;28;20053;-61
2022/12/28 07:05:37;;;;;;;;;;;9.60;99.90;;;;;;5072404;28;19909;-61
2022/12/28 07:08:02;;;;;;;;;;;9.70;99.90;;;;;;5064788;28;19920;-63
2022/12/28 07:10:28;;;;;;;;;;;9.70;99.90;;;;;;5072021;28;19908;-63
2022/12/28 07:12:53;;;;;;;;;;;9.70;99.90;;;;;;5071515;28;20362;-63
2022/12/28 07:15:19;;;;;;;;;;;9.70;99.90;;;;;;5070484;28;20263;-62
2022/12/28 07:17:44;;;;;;;;;;;9.80;99.90;;;;;;5071023;28;19916;-63
2022/12/28 07:20:10;;;;;;;;;;;9.70;99.90;;;;;;5071862;28;20029;-63
2022/12/28 07:22:36;;;;;;;;;;;9.70;99.90;;;;;;5071434;28;19912;-63
2022/12/28 07:25:01;;;;;;;;;;;9.70;99.90;;;;;;5065015;28;20374;-61
2022/12/28 07:27:27;;;;;;;;;;;9.70;99.90;;;;;;5071684;28;20333;-63
2022/12/28 07:29:52;;;;;;;;;;;9.70;99.90;;;;;;5071535;28;19916;-59
2022/12/28 07:32:18;;;;;;;;;;;9.70;99.90;;;;;;5066330;28;19919;-61
2022/12/28 07:34:43;;;;;;;;;;;9.70;99.90;;;;;;5066584;28;19916;-63
2022/12/28 07:37:09;;;;;;;;;;;9.70;99.90;;;;;;5071083;28;19912;-62
2022/12/28 07:39:34;;;;;;;;;;;9.70;99.90;;;;;;5070927;28;19916;-63
2022/12/28 07:42:05;;;;;;;;;;;9.80;99.90;;;;;;5070275;28;20255;-63
2022/12/28 07:44:30;;;;;;;;;;;9.80;99.90;;;;;;5071124;28;19912;-62
2022/12/28 07:46:55;;;;;;;;;;;9.80;99.90;;;;;;5064206;28;20306;-63
2022/12/28 07:49:21;;;;;;;;;;;9.70;99.90;;;;;;5070723;28;20343;-61
2022/12/28 07:51:47;;;;;;;;;;;9.70;99.90;;;;;;5071451;28;19974;-62
2022/12/28 07:54:13;;;;;;;;;;;9.70;99.90;;;;;;5069669;28;19919;-63
2022/12/28 07:56:38;;;;;;;;;;;9.70;99.90;;;;;;5065295;28;19912;-63
2022/12/28 07:59:04;;;;;;;;;;;9.70;99.90;;;;;;5060642;28;19947;-62
2022/12/28 08:01:31;;;;;;;;;;;9.70;99.90;;;;;;5070607;28;19913;-63
2022/12/28 08:03:57;;;;;;;;;;;9.80;99.90;;;;;;5064532;28;19920;-64
2022/12/28 08:06:23;;;;;;;;;;;9.80;99.90;;;;;;5070387;28;19999;-62
2022/12/28 08:08:53;;;;;;;;;;;9.80;99.90;;;;;;5070566;28;20059;-63
2022/12/28 08:11:20;;;;;;;;;;;9.80;99.90;;;;;;5066521;28;19916;-62
2022/12/28 08:13:46;;;;;;;;;;;9.80;99.90;;;;;;5066644;28;19922;-63
2022/12/28 08:16:14;;;;;;;;;;;9.80;99.90;;;;;;5064143;28;19958;-62
2022/12/28 08:18:39;;;;;;;;;;;9.90;99.90;;;;;;5065235;28;19920;-62
2022/12/28 08:21:06;;;;;;;;;;;9.90;99.90;;;;;;5071112;28;19969;-62
2022/12/28 08:23:32;;;;;;;;;;;9.90;99.90;;;;;;5070230;28;19913;-62
2022/12/28 08:26:07;;;;;;;;;;;9.90;99.90;;;;;;5065682;28;19920;-60
2022/12/28 08:28:33;;;;;;;;;;;9.90;99.90;;;;;;5070733;28;20336;-62
2022/12/28 08:31:03;;;;;;;;;;;9.90;99.90;;;;;;5070461;28;19912;-61
2022/12/28 08:33:29;;;;;;;;;;;9.90;99.90;;;;;;5069808;28;19912;-62
2022/12/28 08:35:55;;;;;;;;;;;9.90;99.90;;;;;;5067294;28;19966;-62
2022/12/28 08:38:21;;;;;;;;;;;9.90;99.90;;;;;;5070228;28;19961;-61
2022/12/28 08:40:53;;;;;;;;;;;9.90;99.90;;;;;;5070573;28;20356;-61
2022/12/28 08:43:18;;;;;;;;;;;10.00;99.90;;;;;;5070063;28;19908;-62
2022/12/28 08:45:44;;;;;;;;;;;10.00;99.90;;;;;;5069176;28;19923;-62
2022/12/28 08:48:09;;;;;;;;;;;10.00;99.90;;;;;;5070193;28;19908;-61
2022/12/28 08:50:35;;;;;;;;;;;10.00;99.90;;;;;;5062462;28;19912;-62
2022/12/28 08:53:00;;;;;;;;;;;10.00;99.90;;;;;;5062195;28;19912;-62
2022/12/28 08:55:25;;;;;;;;;;;10.00;99.90;;;;;;5069569;28;19940;-62
2022/12/28 08:57:51;;;;;;;;;;;10.00;99.90;;;;;;5070359;28;19908;-61
2022/12/28 09:00:16;;;;;;;;;;;10.00;99.90;;;;;;5070381;28;19988;-61
2022/12/28 09:02:42;;;;;;;;;;;10.00;99.90;;;;;;5069895;28;20367;-62
2022/12/28 09:05:07;;;;;;;;;;;10.10;99.90;;;;;;5070194;28;19917;-62
2022/12/28 09:07:33;;;;;;;;;;;10.10;99.90;;;;;;5064926;28;19913;-61
2022/12/28 09:09:58;;;;;;;;;;;10.10;99.90;;;;;;5070305;28;20014;-62
2022/12/28 09:12:24;;;;;;;;;;;10.10;99.90;;;;;;5069814;28;19950;-60
2022/12/28 09:14:49;;;;;;;;;;;10.10;99.90;;;;;;5069652;28;19915;-62
2022/12/28 09:17:15;;;;;;;;;;;10.10;99.90;;;;;;5069665;28;19931;-61
2022/12/28 09:19:40;;;;;;;;;;;10.00;99.90;;;;;;5070952;28;20424;-62
2022/12/28 09:22:05;;;;;;;;;;;10.00;99.90;;;;;;5069798;28;20384;-62
2022/12/28 09:24:31;;;;;;;;;;;10.00;99.90;;;;;;5073036;28;19982;-60
2022/12/28 09:26:56;;;;;;;;;;;10.10;99.90;;;;;;5074278;28;19931;-61
2022/12/28 09:29:22;;;;;;;;;;;10.10;99.90;;;;;;5071222;28;19908;-60
2022/12/28 09:31:47;;;;;;;;;;;10.10;99.90;;;;;;5071183;28;19912;-60
2022/12/28 09:34:13;;;;;;;;;;;10.10;99.90;;;;;;5072671;28;20298;-62
2022/12/28 09:36:42;;;;;;;;;;;10.20;99.90;;;;;;5074049;28;19912;-61
2022/12/28 09:39:11;;;;;;;;;;;10.20;99.90;;;;;;5072493;28;19916;-61
2022/12/28 09:41:36;;;;;;;;;;;10.20;99.90;;;;;;5073560;28;20282;-62
2022/12/28 09:44:21;;;;;;;;;;;10.30;99.90;;;;;;5073203;28;19912;-61
2022/12/28 09:46:56;;;;;;;;;;;10.30;99.90;;;;;;5072595;28;19941;-62
2022/12/28 09:49:23;;;;;;;;;;;10.30;99.90;;;;;;5067676;28;19999;-60
2022/12/28 09:51:58;;;;;;;;;;;10.40;99.90;;;;;;5073367;28;19943;-62
2022/12/28 09:54:24;;;;;;;;;;;10.40;99.90;;;;;;5072891;28;19912;-61
2022/12/28 09:56:50;;;;;;;;;;;10.40;99.90;;;;;;5073230;28;19965;-62
2022/12/28 09:59:20;;;;;;;;;;;10.40;99.90;;;;;;5072147;28;20301;-61
2022/12/28 10:01:49;;;;;;;;;;;10.50;99.90;;;;;;5069868;28;19912;-60
2022/12/28 10:04:14;;;;;;;;;;;10.50;99.90;;;;;;5072654;28;19984;-60
2022/12/28 10:06:40;;;;;;;;;;;10.50;99.90;;;;;;5072437;28;20462;-62
2022/12/28 10:09:11;;;;;;;;;;;10.50;99.90;;;;;;5069574;28;20363;-60
2022/12/28 10:11:40;;;;;;;;;;;10.50;99.90;;;;;;5069493;28;19928;-61
2022/12/28 10:14:16;;;;;;;;;;;10.50;99.90;;;;;;5073140;28;20412;-61
2022/12/28 10:16:42;;;;;;;;;;;10.50;99.90;;;;;;5072939;28;20019;-62
2022/12/28 10:19:07;;;;;;;;;;;10.50;99.90;;;;;;5072768;28;20031;-62
2022/12/28 10:21:33;;;;;;;;;;;10.60;99.90;;;;;;5072897;28;20256;-63
2022/12/28 10:23:59;;;;;;;;;;;10.60;99.90;;;;;;5070740;28;19958;-62
2022/12/28 10:26:24;;;;;;;;;;;10.60;99.90;;;;;;5065723;28;19909;-62
2022/12/28 10:28:51;;;;;;;;;;;10.60;99.90;;;;;;5072408;28;19915;-61
2022/12/28 10:31:29;;;;;;;;;;;10.60;99.90;;;;;;5072651;28;19916;-62
2022/12/28 10:33:54;;;;;;;;;;;10.70;99.90;;;;;;5056908;28;19913;-62
2022/12/28 10:36:20;;;;;;;;;;;10.70;99.90;;;;;;5072409;28;20007;-62
2022/12/28 10:38:54;;;;;;;;;;;10.70;99.90;;;;;;5091554;22;19929;-65
2022/12/28 10:41:20;;;;;;;;;;;10.70;99.90;;;;;;5044849;28;19931;-65
2022/12/28 10:43:48;;;;;;;;;;;10.70;99.90;;;;;;5070716;28;20050;-66
2022/12/28 10:46:17;;;;;;;;;;;10.80;99.90;;;;;;5046870;28;20268;-66
2022/12/28 10:48:46;;;;;;;;;;;10.80;99.90;;;;;;5071578;28;19947;-65
2022/12/28 10:51:13;;;;;;;;;;;10.80;99.90;;;;;;5062877;28;19924;-65
2022/12/28 10:53:38;;;;;;;;;;;10.80;99.90;;;;;;5051993;28;19991;-66
2022/12/28 10:56:10;;;;;;;;;;;10.80;99.90;;;;;;5052628;28;20334;-65
2022/12/28 10:58:35;;;;;;;;;;;10.80;99.90;;;;;;5052080;28;20008;-64
2022/12/28 11:01:02;;;;;;;;;;;10.80;99.90;;;;;;5052653;28;20007;-66
2022/12/28 11:03:34;;;;;;;;;;;10.80;99.90;;;;;;5051606;28;19920;-65
2022/12/28 11:06:17;;;;;;;;;;;10.80;99.90;;;;;;5050428;28;19917;-66
2022/12/28 11:08:43;;;;;;;;;;;10.80;99.90;;;;;;5050391;28;19971;-64
2022/12/28 11:11:16;;;;;;;;;;;10.70;99.90;;;;;;5051373;28;19920;-66
2022/12/28 11:13:42;;;;;;;;;;;10.70;99.90;;;;;;5051937;28;19913;-65
2022/12/28 11:16:12;;;;;;;;;;;10.70;99.90;;;;;;5052289;28;19986;-66
2022/12/28 11:18:38;;;;;;;;;;;10.70;99.90;;;;;;5051381;28;19956;-66
2022/12/28 11:21:04;;;;;;;;;;;10.70;99.90;;;;;;5060810;28;19948;-66
2022/12/28 11:23:31;;;;;;;;;;;10.70;99.90;;;;;;5051578;28;20377;-63
2022/12/28 11:25:57;;;;;;;;;;;10.70;99.90;;;;;;5051348;28;19917;-65
2022/12/28 11:28:23;;;;;;;;;;;10.80;99.90;;;;;;5051962;28;19912;-66
2022/12/28 11:30:50;;;;;;;;;;;10.80;99.90;;;;;;5052095;28;19919;-66
2022/12/28 11:33:34;;;;;;;;;;;10.80;99.90;;;;;;5049719;28;19921;-66
2022/12/28 11:36:00;;;;;;;;;;;10.80;99.90;;;;;;5051758;28;19999;-65
2022/12/28 11:38:37;;;;;;;;;;;10.80;99.90;;;;;;5051562;28;20418;-66
2022/12/28 11:41:02;;;;;;;;;;;10.80;99.90;;;;;;5051972;28;19909;-66
2022/12/28 11:43:28;;;;;;;;;;;10.80;99.90;;;;;;5052089;28;20406;-66
2022/12/28 11:45:57;;;;;;;;;;;10.90;99.90;;;;;;5069168;28;19908;-67
2022/12/28 11:48:46;;;;;;;;;;;10.80;99.90;;;;;;5051192;28;19916;-66
2022/12/28 11:51:17;;;;;;;;;;;10.80;99.90;;;;;;5038113;28;19962;-66
2022/12/28 11:53:43;;;;;;;;;;;10.80;99.90;;;;;;5070930;28;19909;-65
2022/12/28 11:56:09;;;;;;;;;;;10.80;99.90;;;;;;5062838;28;20007;-65
2022/12/28 11:58:35;;;;;;;;;;;10.80;99.90;;;;;;5070260;28;19958;-66
2022/12/28 12:01:03;;;;;;;;;;;10.80;99.90;;;;;;5070101;28;19912;-67
2022/12/28 12:03:47;;;;;;;;;;;10.80;99.90;;;;;;5070018;28;19927;-67
2022/12/28 12:06:12;;;;;;;;;;;10.70;99.90;;;;;;5068542;28;20037;-66
2022/12/28 12:08:39;;;;;;;;;;;10.70;99.90;;;;;;5057838;28;19952;-65
2022/12/28 12:11:17;;;;;;;;;;;10.80;99.90;;;;;;5066636;28;19917;-66
2022/12/28 12:13:43;;;;;;;;;;;10.80;99.90;;;;;;5069849;28;19918;-66
2022/12/28 12:16:20;;;;;;;;;;;10.80;99.90;;;;;;5067071;28;20010;-66
2022/12/28 12:18:50;;;;;;;;;;;10.80;99.90;;;;;;5066603;28;20007;-66
2022/12/28 12:21:21;;;;;;;;;;;10.80;99.90;;;;;;5070059;28;19916;-66
2022/12/28 12:23:52;;;;;;;;;;;10.90;99.90;;;;;;5054336;28;19917;-65
2022/12/28 12:26:26;;;;;;;;;;;10.90;99.90;;;;;;5051441;28;20441;-65
2022/12/28 12:29:01;;;;;;;;;;;10.90;99.90;;;;;;5058484;28;19917;-65
2022/12/28 12:31:30;;;;;;;;;;;10.90;99.90;;;;;;5051018;28;19912;-65
2022/12/28 12:33:58;;;;;;;;;;;10.90;99.90;;;;;;5068693;28;19970;-64
2022/12/28 12:36:57;;;;;;;;;;;10.80;99.90;;;;;;5051158;28;19935;-66
2022/12/28 12:39:34;;;;;;;;;;;10.90;99.90;;;;;;5050974;28;19952;-66
2022/12/28 12:42:00;;;;;;;;;;;10.90;99.90;;;;;;5050564;28;20382;-64
2022/12/28 12:44:25;;;;;;;;;;;10.90;99.90;;;;;;5062493;28;19970;-66
2022/12/28 12:47:09;;;;;;;;;;;10.90;99.90;;;;;;5069906;28;19962;-62
2022/12/28 12:49:44;;;;;;;;;;;11.00;99.90;;;;;;5070388;28;19916;-65
2022/12/28 12:52:10;;;;;;;;;;;11.00;99.90;;;;;;5053910;28;19912;-67
2022/12/28 12:54:35;;;;;;;;;;;10.90;99.90;;;;;;5051164;28;20447;-65
2022/12/28 12:57:05;;;;;;;;;;;11.00;99.90;;;;;;5054795;28;20390;-66
2022/12/28 12:59:50;;;;;;;;;;;11.00;99.90;;;;;;5053507;28;19982;-66
2022/12/28 13:02:19;;;;;;;;;;;11.00;99.90;;;;;;5054731;28;19909;-66
2022/12/28 13:04:48;;;;;;;;;;;11.00;99.90;;;;;;5067168;28;20379;-67
2022/12/28 13:07:21;;;;;;;;;;;11.00;99.90;;;;;;5068492;28;19935;-65
2022/12/28 13:09:48;;;;;;;;;;;11.00;99.90;;;;;;5073516;28;19909;-65
2022/12/28 13:12:15;;;;;;;;;;;11.00;99.90;;;;;;5073382;28;20008;-65
2022/12/28 13:14:44;;;;;;;;;;;11.00;99.90;;;;;;5073228;28;19909;-65
2022/12/28 13:17:16;;;;;;;;;;;11.00;99.90;;;;;;5068193;28;19913;-65
2022/12/28 13:19:41;;;;;;;;;;;11.00;99.90;;;;;;5054668;28;19916;-65
2022/12/28 13:22:24;;;;;;;;;;;11.00;99.90;;;;;;5053661;28;19909;-64
2022/12/28 13:24:49;;;;;;;;;;;10.90;99.90;;;;;;5054328;28;19917;-66
2022/12/28 13:27:17;;;;;;;;;;;10.90;99.90;;;;;;5054527;28;20299;-66
2022/12/28 13:29:49;;;;;;;;;;;10.90;99.90;;;;;;5068217;28;19958;-67
2022/12/28 13:32:25;;;;;;;;;;;10.80;99.90;;;;;;5070732;28;20026;-66
2022/12/28 13:34:50;;;;;;;;;;;10.80;99.90;;;;;;5073092;28;20328;-66
2022/12/28 13:37:16;;;;;;;;;;;10.80;99.90;;;;;;5073111;28;19913;-66
2022/12/28 13:39:41;;;;;;;;;;;10.70;99.90;;;;;;5072845;28;19917;-66
2022/12/28 13:42:15;;;;;;;;;;;10.80;99.90;;;;;;5053762;28;19947;-66
2022/12/28 13:44:46;;;;;;;;;;;10.80;99.90;;;;;;5053110;28;20062;-66
2022/12/28 13:47:14;;;;;;;;;;;10.80;99.90;;;;;;5053778;28;20328;-65
2022/12/28 13:49:53;;;;;;;;;;;10.80;99.90;;;;;;5053901;28;19942;-66
2022/12/28 13:52:24;;;;;;;;;;;10.80;99.90;;;;;;5053271;28;19913;-66
2022/12/28 13:54:53;;;;;;;;;;;10.90;99.90;;;;;;5054552;28;20298;-63
2022/12/28 13:57:20;;;;;;;;;;;10.90;99.90;;;;;;5053399;28;19958;-65
2022/12/28 13:59:46;;;;;;;;;;;10.90;99.90;;;;;;5053889;28;19928;-65
2022/12/28 14:02:17;;;;;;;;;;;10.90;99.90;;;;;;5052965;28;19995;-65
2022/12/28 14:04:43;;;;;;;;;;;10.90;99.90;;;;;;5052036;28;19917;-66
2022/12/28 14:07:13;;;;;;;;;;;10.90;99.90;;;;;;5053259;28;19912;-66
2022/12/28 14:09:39;;;;;;;;;;;11.00;99.90;;;;;;5063427;28;19920;-66
2022/12/28 14:12:04;;;;;;;;;;;11.00;99.90;;;;;;5066131;28;20287;-65
2022/12/28 14:14:30;;;;;;;;;;;11.00;99.90;;;;;;5054304;28;19954;-65
2022/12/28 14:16:55;;;;;;;;;;;11.00;99.90;;;;;;5072739;28;20003;-65
2022/12/28 14:19:21;;;;;;;;;;;11.00;99.90;;;;;;5072550;28;19909;-65
2022/12/28 14:21:47;;;;;;;;;;;11.00;99.90;;;;;;5054027;28;19920;-66
2022/12/28 14:24:13;;;;;;;;;;;10.90;99.90;;;;;;5066915;28;20015;-65
2022/12/28 14:26:44;;;;;;;;;;;10.90;99.90;;;;;;5061218;28;19913;-66
2022/12/28 14:29:11;;;;;;;;;;;10.80;99.90;;;;;;5054180;28;19920;-65
2022/12/28 14:31:37;;;;;;;;;;;10.90;99.90;;;;;;5072396;28;20366;-65
2022/12/28 14:34:04;;;;;;;;;;;10.80;99.90;;;;;;5071195;28;19916;-65
2022/12/28 14:36:35;;;;;;;;;;;10.90;99.90;;;;;;5071970;28;19919;-65
2022/12/28 14:39:01;;;;;;;;;;;10.80;99.90;;;;;;5063760;28;19952;-64
2022/12/28 14:41:32;;;;;;;;;;;10.90;99.90;;;;;;5052350;28;19967;-65
2022/12/28 14:43:59;;;;;;;;;;;10.90;99.90;;;;;;5052651;28;19965;-66
2022/12/28 14:46:25;;;;;;;;;;;10.90;99.90;;;;;;5052992;28;20004;-66
2022/12/28 14:48:50;;;;;;;;;;;10.90;99.90;;;;;;5052644;28;19995;-66
2022/12/28 14:51:15;;;;;;;;;;;10.90;99.90;;;;;;5057385;28;20360;-65
2022/12/28 14:53:41;;;;;;;;;;;10.90;99.90;;;;;;5071641;28;19908;-65
2022/12/28 14:56:12;;;;;;;;;;;10.90;99.90;;;;;;5064738;28;19939;-66
2022/12/28 14:58:44;;;;;;;;;;;10.80;99.90;;;;;;5071367;28;20290;-65